createdAt,value
2022-11-29T00:00:15.939Z,1.40
2022-11-29T00:00:37.603Z,1.25
2022-11-29T00:00:59.718Z,1.02
2022-11-29T00:01:23.971Z,1.02
2022-11-29T00:01:45.678Z,1.40
2022-11-29T00:02:07.353Z,1.15
2022-11-29T00:02:31.415Z,1.40
2022-11-29T00:02:53.361Z,0.82
2022-11-29T00:03:15.304Z,1.20
2022-11-29T00:03:37.426Z,1.55
2022-11-29T00:04:00.567Z,1.23
2022-11-29T00:04:22.162Z,1.20
2022-11-29T00:04:44.016Z,1.25
2022-11-29T00:05:07.103Z,1.20
2022-11-29T00:05:29.635Z,1.55
2022-11-29T00:05:53.224Z,1.40
2022-11-29T00:06:16.743Z,1.08
2022-11-29T00:06:38.728Z,1.20
2022-11-29T00:07:00.396Z,1.40
2022-11-29T00:07:23.295Z,1.17
2022-11-29T00:07:47.759Z,1.02
2022-11-29T00:08:10.754Z,1.30
2022-11-29T00:08:32.749Z,1.30
2022-11-29T00:08:55.605Z,1.13
2022-11-29T00:09:19.009Z,0.80
2022-11-29T00:09:40.798Z,0.82
2022-11-29T00:10:04.936Z,1.60
2022-11-29T00:10:26.596Z,1.38
2022-11-29T00:10:49.266Z,1.02
2022-11-29T00:11:14.252Z,0.90
2022-11-29T00:12:01.078Z,1.10
2022-11-29T00:12:22.700Z,1.10
2022-11-29T00:12:46.701Z,1.13
2022-11-29T00:13:09.006Z,1.00
2022-11-29T00:13:30.642Z,1.23
2022-11-29T00:13:54.551Z,1.30
2022-11-29T00:14:18.601Z,1.30
2022-11-29T00:14:41.034Z,0.90
2022-11-29T00:15:05.409Z,1.02
2022-11-29T00:15:27.092Z,1.27
2022-11-29T00:15:48.770Z,1.08
2022-11-29T00:16:11.986Z,1.20
2022-11-29T00:16:34.391Z,1.02
2022-11-29T00:16:59.245Z,1.33
2022-11-29T00:17:21.398Z,1.27
2022-11-29T00:17:44.369Z,1.33
2022-11-29T00:18:08.252Z,1.15
2022-11-29T00:18:31.166Z,1.63
2022-11-29T00:18:53.201Z,0.95
2022-11-29T00:19:14.807Z,1.08
2022-11-29T00:19:38.258Z,1.15
2022-11-29T00:20:00.104Z,1.08
2022-11-29T00:20:22.395Z,1.25
2022-11-29T00:20:43.975Z,1.20
2022-11-29T00:21:06.732Z,1.10
2022-11-29T00:21:29.405Z,1.15
2022-11-29T00:21:53.285Z,0.77
2022-11-29T00:22:14.927Z,1.13
2022-11-29T00:22:37.600Z,1.73
2022-11-29T00:23:00.815Z,1.33
2022-11-29T00:23:22.709Z,1.27
2022-11-29T00:23:45.346Z,1.65
2022-11-29T00:24:09.875Z,1.50
2022-11-29T00:24:32.573Z,0.90
2022-11-29T00:24:54.246Z,1.05
2022-11-29T00:25:15.934Z,0.90
2022-11-29T00:25:39.434Z,0.82
2022-11-29T00:26:03.839Z,0.88
2022-11-29T00:26:25.462Z,1.00
2022-11-29T00:26:48.965Z,0.82
2022-11-29T00:27:11.496Z,0.90
2022-11-29T00:27:33.157Z,0.80
2022-11-29T00:27:54.720Z,1.33
2022-11-29T00:28:16.650Z,1.10
2022-11-29T00:28:38.389Z,1.50
2022-11-29T00:29:00.946Z,1.60
2022-11-29T00:29:22.569Z,1.00
2022-11-29T00:29:44.132Z,0.95
2022-11-29T00:30:07.418Z,1.10
2022-11-29T00:30:29.990Z,1.60
2022-11-29T00:30:51.698Z,1.33
2022-11-29T00:31:15.748Z,1.05
2022-11-29T00:31:37.388Z,0.90
2022-11-29T00:32:00.267Z,0.60
2022-11-29T00:32:21.874Z,0.82
2022-11-29T00:32:44.837Z,1.10
2022-11-29T00:33:06.390Z,1.40
2022-11-29T00:33:29.080Z,0.98
2022-11-29T00:33:51.256Z,1.30
2022-11-29T00:34:13.104Z,1.30
2022-11-29T00:34:34.865Z,1.00
2022-11-29T00:34:59.611Z,1.10
2022-11-29T00:35:21.508Z,1.02
2022-11-29T00:35:43.111Z,1.60
2022-11-29T00:36:05.093Z,1.00
2022-11-29T00:36:28.434Z,0.90
2022-11-29T00:36:50.035Z,1.02
2022-11-29T00:37:11.642Z,1.20
2022-11-29T00:37:34.229Z,0.98
2022-11-29T00:37:55.833Z,1.00
2022-11-29T00:38:17.375Z,1.33
2022-11-29T00:38:39.335Z,1.10
2022-11-29T00:39:01.990Z,1.30
2022-11-29T00:39:24.254Z,2.00
2022-11-29T00:39:45.826Z,1.70
2022-11-29T00:40:09.706Z,1.60
2022-11-29T00:40:31.248Z,1.17
2022-11-29T00:40:52.854Z,1.17
2022-11-29T00:41:14.510Z,1.00
2022-11-29T00:41:36.108Z,1.58
2022-11-29T00:41:58.670Z,1.15
2022-11-29T00:42:20.591Z,1.00
2022-11-29T00:42:42.201Z,0.98
2022-11-29T00:43:03.849Z,1.08
2022-11-29T00:43:25.452Z,0.93
2022-11-29T00:43:48.613Z,1.30
2022-11-29T00:44:14.008Z,1.10
2022-11-29T00:44:38.500Z,1.08
2022-11-29T00:45:01.078Z,0.77
2022-11-29T00:45:22.700Z,1.15
2022-11-29T00:45:44.340Z,0.95
2022-11-29T00:46:06.687Z,1.40
2022-11-29T00:46:28.464Z,1.58
2022-11-29T00:46:51.210Z,0.82
2022-11-29T00:47:12.877Z,1.02
2022-11-29T00:47:34.723Z,0.82
2022-11-29T00:47:57.776Z,1.15
2022-11-29T00:48:20.372Z,1.08
2022-11-29T00:48:41.947Z,1.20
2022-11-29T00:49:03.886Z,1.05
2022-11-29T00:49:26.480Z,1.05
2022-11-29T00:49:48.074Z,1.40
2022-11-29T00:50:10.327Z,1.15
2022-11-29T00:50:31.901Z,1.05
2022-11-29T00:50:53.499Z,1.00
2022-11-29T00:51:16.163Z,1.42
2022-11-29T00:51:38.168Z,1.20
2022-11-29T00:51:59.849Z,1.30
2022-11-29T00:52:22.443Z,1.08
2022-11-29T00:52:44.025Z,1.00
2022-11-29T00:53:05.619Z,1.60
2022-11-29T00:53:27.702Z,1.10
2022-11-29T00:53:49.382Z,1.02
2022-11-29T00:54:12.020Z,1.10
2022-11-29T00:54:33.686Z,0.98
2022-11-29T00:54:55.317Z,1.15
2022-11-29T00:55:17.260Z,1.58
2022-11-29T00:55:39.884Z,1.38
2022-11-29T00:56:02.058Z,1.30
2022-11-29T00:56:23.760Z,1.13
2022-11-29T00:56:46.399Z,1.20
2022-11-29T00:57:07.977Z,0.93
2022-11-29T00:57:29.611Z,1.20
2022-11-29T00:57:51.280Z,1.20
2022-11-29T00:58:12.874Z,1.00
2022-11-29T00:58:36.819Z,1.17
2022-11-29T00:58:58.541Z,1.13
2022-11-29T00:59:20.710Z,1.00
2022-11-29T00:59:43.389Z,1.40
2022-11-29T01:00:06.471Z,1.42
2022-11-29T01:00:28.314Z,1.00
2022-11-29T01:00:50.436Z,1.30
2022-11-29T01:01:12.281Z,1.20
2022-11-29T01:01:34.940Z,1.23
2022-11-29T01:01:56.729Z,1.30
2022-11-29T01:02:18.409Z,1.30
2022-11-29T01:02:40.077Z,1.10
2022-11-29T01:03:03.082Z,1.10
2022-11-29T01:03:26.147Z,1.40
2022-11-29T01:03:48.010Z,1.40
2022-11-29T01:04:09.665Z,1.13
2022-11-29T01:04:32.226Z,1.00
2022-11-29T01:04:53.799Z,1.70
2022-11-29T01:05:15.439Z,1.40
2022-11-29T01:05:37.371Z,1.30
2022-11-29T01:06:03.342Z,0.90
2022-11-29T01:06:25.057Z,1.33
2022-11-29T01:06:46.666Z,1.10
2022-11-29T01:07:08.552Z,1.20
2022-11-29T01:07:31.236Z,1.10
2022-11-29T01:07:53.480Z,1.15
2022-11-29T01:08:17.539Z,1.08
2022-11-29T01:08:40.048Z,1.25
2022-11-29T01:09:10.042Z,1.17
2022-11-29T01:09:31.982Z,1.23
2022-11-29T01:09:53.619Z,1.50
2022-11-29T01:10:15.286Z,1.30
2022-11-29T01:10:37.952Z,1.10
2022-11-29T01:11:06.227Z,1.20
2022-11-29T01:11:28.512Z,1.15
2022-11-29T01:11:51.923Z,1.17
2022-11-29T01:12:13.572Z,0.93
2022-11-29T01:12:36.326Z,1.30
2022-11-29T01:12:58.262Z,1.20
2022-11-29T01:13:20.322Z,1.10
2022-11-29T01:13:43.632Z,0.90
2022-11-29T01:14:05.280Z,1.48
2022-11-29T01:14:27.238Z,1.10
2022-11-29T01:14:49.821Z,1.13
2022-11-29T01:15:11.898Z,1.15
2022-11-29T01:15:33.946Z,1.70
2022-11-29T01:16:41.324Z,1.85
2022-11-29T01:17:03.010Z,1.27
2022-11-29T01:17:24.613Z,1.30
2022-11-29T01:17:46.525Z,1.05
2022-11-29T01:18:09.463Z,0.77
2022-11-29T01:18:33.583Z,0.90
2022-11-29T01:18:55.135Z,0.90
2022-11-29T01:19:16.789Z,1.13
2022-11-29T01:19:38.504Z,1.25
2022-11-29T01:20:01.106Z,1.20
2022-11-29T01:20:22.881Z,1.35
2022-11-29T01:20:44.458Z,1.38
2022-11-29T01:21:08.609Z,1.00
2022-11-29T01:21:31.512Z,1.00
2022-11-29T01:21:53.095Z,1.73
2022-11-29T01:22:14.845Z,1.92
2022-11-29T01:22:37.376Z,1.35
2022-11-29T01:23:00.083Z,1.38
2022-11-29T01:23:21.662Z,1.33
2022-11-29T01:23:44.545Z,1.10
2022-11-29T01:24:07.206Z,1.35
2022-11-29T01:24:30.428Z,1.27
2022-11-29T01:24:52.084Z,1.30
2022-11-29T01:25:14.906Z,1.20
2022-11-29T01:25:36.472Z,1.00
2022-11-29T01:25:59.670Z,1.33
2022-11-29T01:26:24.315Z,1.60
2022-11-29T01:26:45.903Z,1.10
2022-11-29T01:27:07.489Z,1.27
2022-11-29T01:27:30.537Z,1.25
2022-11-29T01:27:52.140Z,1.20
2022-11-29T01:28:13.749Z,1.13
2022-11-29T01:28:36.279Z,1.20
2022-11-29T01:28:59.692Z,1.50
2022-11-29T01:29:21.272Z,1.50
2022-11-29T01:29:43.070Z,1.80
2022-11-29T01:30:05.342Z,1.85
2022-11-29T01:30:27.960Z,1.10
2022-11-29T01:30:49.818Z,1.17
2022-11-29T01:31:13.711Z,1.33
2022-11-29T01:31:36.834Z,1.20
2022-11-29T01:31:58.406Z,1.20
2022-11-29T01:32:19.987Z,1.42
2022-11-29T01:32:41.647Z,1.40
2022-11-29T01:33:03.393Z,1.10
2022-11-29T01:33:27.313Z,1.30
2022-11-29T01:33:49.346Z,1.30
2022-11-29T01:34:11.071Z,1.83
2022-11-29T01:34:32.714Z,1.25
2022-11-29T01:34:55.887Z,1.17
2022-11-29T01:35:17.745Z,1.48
2022-11-29T01:35:39.513Z,1.10
2022-11-29T01:36:01.306Z,1.00
2022-11-29T01:36:24.966Z,1.00
2022-11-29T01:36:46.577Z,1.23
2022-11-29T01:37:08.309Z,1.30
2022-11-29T01:37:29.985Z,0.95
2022-11-29T01:37:52.621Z,1.17
2022-11-29T01:38:14.192Z,1.48
2022-11-29T01:38:36.797Z,1.25
2022-11-29T01:38:59.053Z,1.13
2022-11-29T01:39:21.638Z,1.05
2022-11-29T01:39:43.570Z,1.25
2022-11-29T01:40:06.767Z,1.25
2022-11-29T01:40:29.099Z,1.45
2022-11-29T01:41:01.857Z,1.45
2022-11-29T01:41:28.257Z,1.02
2022-11-29T01:41:49.886Z,1.65
2022-11-29T01:42:12.067Z,1.25
2022-11-29T01:42:34.024Z,1.10
2022-11-29T01:42:56.630Z,0.88
2022-11-29T01:43:18.798Z,1.00
2022-11-29T01:43:59.193Z,1.27
2022-11-29T01:44:59.354Z,1.20
2022-11-29T01:45:23.963Z,1.33
2022-11-29T01:45:45.662Z,1.00
2022-11-29T01:46:08.885Z,1.05
2022-11-29T01:46:32.882Z,0.85
2022-11-29T01:46:55.318Z,1.55
2022-11-29T01:47:17.826Z,1.40
2022-11-29T01:47:45.129Z,1.08
2022-11-29T01:48:11.713Z,1.40
2022-11-29T01:48:34.984Z,1.38
2022-11-29T01:49:00.406Z,1.55
2022-11-29T01:49:26.362Z,1.50
2022-11-29T01:49:51.138Z,1.00
2022-11-29T01:50:14.794Z,0.93
2022-11-29T01:50:38.790Z,1.30
2022-11-29T01:51:02.647Z,0.93
2022-11-29T01:51:27.401Z,1.08
2022-11-29T01:51:53.095Z,1.10
2022-11-29T01:52:18.450Z,1.13
2022-11-29T01:52:42.723Z,1.27
2022-11-29T01:53:05.119Z,1.20
2022-11-29T01:53:27.901Z,1.00
2022-11-29T01:53:49.766Z,1.00
2022-11-29T01:54:14.342Z,1.10
2022-11-29T01:54:42.098Z,1.27
2022-11-29T01:55:06.982Z,0.90
2022-11-29T01:55:30.247Z,1.60
2022-11-29T01:55:55.907Z,1.73
2022-11-29T01:56:18.861Z,1.08
2022-11-29T01:56:41.785Z,1.40
2022-11-29T01:57:05.848Z,1.30
2022-11-29T01:57:28.335Z,1.20
2022-11-29T01:57:50.940Z,1.00
2022-11-29T01:58:15.300Z,1.40
2022-11-29T01:58:36.963Z,1.50
2022-11-29T01:59:01.117Z,1.33
2022-11-29T01:59:28.381Z,1.38
2022-11-29T01:59:54.734Z,1.65
2022-11-29T02:00:19.275Z,1.05
2022-11-29T02:00:41.402Z,1.20
2022-11-29T02:01:04.054Z,1.05
2022-11-29T02:01:26.327Z,1.10
2022-11-29T02:01:48.248Z,1.17
2022-11-29T02:02:13.805Z,1.27
2022-11-29T02:02:38.525Z,1.10
2022-11-29T02:03:06.425Z,1.63
2022-11-29T02:03:28.157Z,2.05
2022-11-29T02:03:51.155Z,1.20
2022-11-29T02:04:14.383Z,1.33
2022-11-29T02:04:37.955Z,1.40
2022-11-29T02:05:02.451Z,1.33
2022-11-29T02:05:25.631Z,1.13
2022-11-29T02:05:50.892Z,1.65
2022-11-29T02:06:13.029Z,1.30
2022-11-29T02:06:35.933Z,1.45
2022-11-29T02:06:57.594Z,1.40
2022-11-29T02:07:20.317Z,1.40
2022-11-29T02:07:44.718Z,1.63
2022-11-29T02:08:08.285Z,1.50
2022-11-29T02:08:33.394Z,1.35
2022-11-29T02:08:56.340Z,1.38
2022-11-29T02:09:19.682Z,1.40
2022-11-29T02:09:41.286Z,1.50
2022-11-29T02:10:04.342Z,0.63
2022-11-29T02:10:36.025Z,0.90
2022-11-29T02:11:16.637Z,0.95
2022-11-29T02:12:06.445Z,1.35
2022-11-29T02:12:40.290Z,1.23
2022-11-29T02:13:10.546Z,0.97
2022-11-29T02:13:40.353Z,1.42
2022-11-29T02:14:19.180Z,1.00
2022-11-29T02:14:55.811Z,1.63
2022-11-29T02:15:27.962Z,1.05
2022-11-29T02:15:59.180Z,1.10
2022-11-29T02:16:29.278Z,1.50
2022-11-29T02:16:58.102Z,1.15
2022-11-29T02:17:30.752Z,1.50
2022-11-29T02:18:03.190Z,1.27
2022-11-29T02:18:39.350Z,1.35
2022-11-29T02:19:19.616Z,1.20
2022-11-29T02:20:05.600Z,1.05
2022-11-29T02:20:56.258Z,1.13
2022-11-29T02:21:38.527Z,1.25
2022-11-29T02:22:04.062Z,1.10
2022-11-29T02:22:32.280Z,1.20
2022-11-29T02:22:59.437Z,1.20
2022-11-29T02:23:40.614Z,1.20
2022-11-29T02:24:27.440Z,1.98
2022-11-29T02:25:04.005Z,1.52
2022-11-29T02:25:49.307Z,1.27
2022-11-29T02:26:33.031Z,1.13
2022-11-29T02:27:23.121Z,1.65
2022-11-29T02:28:20.643Z,1.20
2022-11-29T02:28:58.795Z,1.17
2022-11-29T02:29:58.303Z,1.00
2022-11-29T02:30:27.584Z,1.88
2022-11-29T02:31:34.573Z,1.50
2022-11-29T02:32:26.675Z,1.33
2022-11-29T02:33:15.954Z,1.52
2022-11-29T02:33:53.962Z,1.23
2022-11-29T02:34:38.807Z,1.30
2022-11-29T02:35:13.182Z,1.23
2022-11-29T02:35:54.104Z,1.10
2022-11-29T02:36:30.810Z,2.33
2022-11-29T02:37:11.504Z,1.00
2022-11-29T02:37:49.181Z,1.08
2022-11-29T02:38:30.243Z,1.20
2022-11-29T02:39:36.823Z,1.25
2022-11-29T02:40:13.677Z,1.40
2022-11-29T02:40:56.706Z,1.52
2022-11-29T02:41:36.131Z,1.33
2022-11-29T02:42:19.993Z,1.60
2022-11-29T02:43:04.889Z,1.40
2022-11-29T02:43:43.568Z,1.52
2022-11-29T02:44:30.822Z,1.45
2022-11-29T02:45:05.074Z,1.33
2022-11-29T02:45:45.721Z,1.77
2022-11-29T02:46:24.654Z,1.52
2022-11-29T02:46:58.074Z,1.15
2022-11-29T02:47:30.157Z,1.67
2022-11-29T02:48:03.384Z,1.20
2022-11-29T02:48:40.737Z,1.23
2022-11-29T02:49:12.678Z,1.48
2022-11-29T02:49:53.422Z,2.10
2022-11-29T02:50:23.266Z,1.30
2022-11-29T02:50:52.187Z,1.42
2022-11-29T02:51:23.537Z,1.60
2022-11-29T02:51:51.380Z,1.80
2022-11-29T02:52:19.448Z,1.45
2022-11-29T02:52:48.383Z,0.95
2022-11-29T02:53:16.503Z,1.83
2022-11-29T02:53:44.187Z,1.50
2022-11-29T02:54:13.915Z,1.67
2022-11-29T02:54:46.895Z,1.40
2022-11-29T02:55:16.334Z,1.33
2022-11-29T02:55:43.991Z,1.83
2022-11-29T02:56:14.486Z,0.98
2022-11-29T02:56:43.038Z,1.95
2022-11-29T02:57:11.654Z,1.20
2022-11-29T02:57:42.334Z,1.13
2022-11-29T02:58:14.688Z,1.48
2022-11-29T02:58:45.696Z,1.52
2022-11-29T02:59:18.010Z,1.60
2022-11-29T02:59:48.634Z,1.17
2022-11-29T03:00:13.761Z,1.25
2022-11-29T03:00:41.211Z,1.50
2022-11-29T03:01:10.549Z,1.77
2022-11-29T03:01:40.613Z,1.35
2022-11-29T03:02:12.500Z,1.75
2022-11-29T03:02:39.983Z,1.30
2022-11-29T03:03:12.521Z,1.73
2022-11-29T03:03:39.849Z,1.63
2022-11-29T03:04:10.270Z,1.70
2022-11-29T03:04:37.578Z,1.70
2022-11-29T03:05:09.768Z,1.50
2022-11-29T03:05:44.714Z,1.35
2022-11-29T03:06:16.936Z,2.03
2022-11-29T03:06:46.606Z,1.25
2022-11-29T03:07:16.133Z,1.23
2022-11-29T03:07:46.523Z,1.80
2022-11-29T03:08:16.498Z,1.35
2022-11-29T03:08:42.976Z,1.42
2022-11-29T03:09:12.616Z,1.50
2022-11-29T03:09:39.391Z,1.27
2022-11-29T03:10:11.062Z,1.15
2022-11-29T03:10:44.985Z,1.83
2022-11-29T03:11:16.666Z,1.27
2022-11-29T03:11:45.782Z,1.10
2022-11-29T03:12:20.163Z,1.27
2022-11-29T03:12:45.325Z,2.08
2022-11-29T03:13:16.866Z,1.50
2022-11-29T03:13:51.362Z,1.42
2022-11-29T03:14:21.981Z,1.33
2022-11-29T03:14:56.862Z,1.30
2022-11-29T03:15:27.357Z,1.17
2022-11-29T03:15:57.945Z,1.63
2022-11-29T03:16:30.838Z,1.10
2022-11-29T03:17:03.333Z,1.23
2022-11-29T03:17:36.563Z,1.45
2022-11-29T03:18:28.217Z,1.50
2022-11-29T03:19:05.241Z,1.75
2022-11-29T03:19:52.670Z,2.00
2022-11-29T03:20:26.378Z,1.20
2022-11-29T03:20:57.796Z,1.42
2022-11-29T03:21:33.162Z,1.85
2022-11-29T03:22:02.005Z,1.80
2022-11-29T03:22:39.892Z,2.00
2022-11-29T03:23:13.285Z,1.52
2022-11-29T03:23:40.221Z,2.00
2022-11-29T03:24:09.489Z,1.67
2022-11-29T03:24:40.936Z,1.40
2022-11-29T03:25:09.151Z,1.50
2022-11-29T03:25:39.242Z,1.50
2022-11-29T03:26:08.526Z,1.55
2022-11-29T03:26:35.419Z,1.63
2022-11-29T03:27:01.755Z,1.90
2022-11-29T03:27:31.747Z,1.83
2022-11-29T03:28:01.257Z,2.83
2022-11-29T03:28:29.755Z,1.38
2022-11-29T03:28:58.603Z,1.83
2022-11-29T03:29:29.285Z,1.75
2022-11-29T03:29:56.453Z,1.73
2022-11-29T03:30:19.806Z,2.03
2022-11-29T03:30:50.165Z,1.75
2022-11-29T03:31:19.192Z,1.77
2022-11-29T03:31:47.668Z,1.33
2022-11-29T03:32:17.075Z,1.67
2022-11-29T03:32:48.466Z,1.63
2022-11-29T03:33:17.087Z,1.48
2022-11-29T03:33:49.520Z,1.83
2022-11-29T03:34:24.751Z,1.40
2022-11-29T03:34:59.438Z,1.25
2022-11-29T03:35:28.522Z,1.42
2022-11-29T03:35:58.343Z,1.58
2022-11-29T03:36:29.605Z,1.50
2022-11-29T03:36:58.077Z,1.85
2022-11-29T03:37:26.754Z,1.67
2022-11-29T03:37:56.747Z,1.27
2022-11-29T03:38:25.136Z,1.70
2022-11-29T03:38:47.692Z,1.90
2022-11-29T03:39:18.561Z,1.73
2022-11-29T03:39:50.288Z,1.30
2022-11-29T03:40:16.065Z,1.52
2022-11-29T03:40:46.392Z,1.52
2022-11-29T03:41:19.969Z,1.65
2022-11-29T03:41:48.452Z,2.08
2022-11-29T03:42:16.954Z,1.83
2022-11-29T03:42:45.400Z,1.92
2022-11-29T03:43:10.467Z,1.88
2022-11-29T03:43:42.643Z,1.88
2022-11-29T03:44:11.240Z,1.60
2022-11-29T03:44:36.241Z,1.52
2022-11-29T03:45:06.538Z,1.35
2022-11-29T03:45:35.150Z,1.90
2022-11-29T03:46:00.935Z,1.55
2022-11-29T03:46:29.219Z,1.52
2022-11-29T03:46:57.638Z,1.60
2022-11-29T03:47:26.425Z,1.65
2022-11-29T03:47:54.516Z,1.58
2022-11-29T03:48:22.885Z,1.63
2022-11-29T03:48:48.650Z,2.08
2022-11-29T03:49:16.948Z,1.77
2022-11-29T03:49:44.669Z,1.40
2022-11-29T03:50:11.252Z,1.27
2022-11-29T03:50:38.850Z,1.42
2022-11-29T03:51:07.899Z,1.25
2022-11-29T03:51:41.249Z,1.80
2022-11-29T03:52:12.222Z,1.20
2022-11-29T03:52:38.302Z,1.80
2022-11-29T03:53:04.960Z,1.55
2022-11-29T03:53:33.724Z,1.45
2022-11-29T03:54:00.105Z,1.33
2022-11-29T03:54:26.355Z,1.38
2022-11-29T03:54:57.460Z,1.35
2022-11-29T03:55:33.812Z,1.75
2022-11-29T03:55:59.802Z,2.17
2022-11-29T03:56:30.175Z,1.88
2022-11-29T03:56:52.378Z,1.85
2022-11-29T03:57:17.977Z,1.73
2022-11-29T03:57:49.726Z,1.75
2022-11-29T03:58:22.495Z,1.27
2022-11-29T03:58:54.305Z,2.33
2022-11-29T03:59:31.141Z,2.03
2022-11-29T04:00:01.195Z,1.73
2022-11-29T04:00:45.623Z,1.70
2022-11-29T04:01:55.251Z,1.05
2022-11-29T04:02:37.257Z,1.33
2022-11-29T04:03:22.045Z,2.20
2022-11-29T04:04:09.817Z,1.38
2022-11-29T04:05:06.933Z,2.10
2022-11-29T04:05:54.930Z,2.20
2022-11-29T04:06:23.991Z,1.70
2022-11-29T04:07:02.201Z,2.13
2022-11-29T04:07:40.192Z,2.20
2022-11-29T04:09:01.622Z,1.92
2022-11-29T04:09:38.652Z,1.90
2022-11-29T04:10:16.363Z,2.05
2022-11-29T04:10:56.258Z,1.83
2022-11-29T04:11:54.832Z,1.90
2022-11-29T04:12:44.386Z,1.98
2022-11-29T04:13:49.309Z,2.30
2022-11-29T04:14:50.628Z,1.92
2022-11-29T04:15:36.842Z,2.30
2022-11-29T04:16:25.080Z,1.85
2022-11-29T04:17:17.493Z,2.58
2022-11-29T04:18:12.565Z,2.20
2022-11-29T04:18:58.860Z,2.28
2022-11-29T04:19:54.509Z,2.22
2022-11-29T04:20:48.408Z,2.08
2022-11-29T04:21:31.540Z,2.05
2022-11-29T04:22:30.009Z,3.23
2022-11-29T04:23:28.092Z,1.95
2022-11-29T04:24:54.448Z,2.45
2022-11-29T04:25:41.619Z,2.40
2022-11-29T04:26:30.824Z,2.28
2022-11-29T04:27:30.785Z,1.80
2022-11-29T04:28:16.743Z,2.60
2022-11-29T04:29:02.900Z,2.65
2022-11-29T04:29:43.790Z,2.53
2022-11-29T04:30:10.917Z,2.05
2022-11-29T04:30:45.040Z,2.80
2022-11-29T04:31:17.587Z,3.03
2022-11-29T04:31:55.306Z,2.72
2022-11-29T04:32:48.981Z,3.55
2022-11-29T04:33:50.059Z,2.58
2022-11-29T04:34:36.039Z,2.75
2022-11-29T04:35:12.654Z,2.67
2022-11-29T04:35:42.545Z,2.53
2022-11-29T04:36:35.267Z,2.40
2022-11-29T04:37:19.991Z,2.53
2022-11-29T04:38:20.805Z,2.60
2022-11-29T04:39:16.222Z,2.70
2022-11-29T04:39:59.726Z,2.83
2022-11-29T04:40:36.809Z,2.45
2022-11-29T04:41:20.441Z,3.33
2022-11-29T04:42:19.611Z,2.88
2022-11-29T04:43:06.749Z,2.58
2022-11-29T04:44:01.319Z,2.53
2022-11-29T04:44:46.470Z,2.45
2022-11-29T04:45:35.296Z,1.80
2022-11-29T04:46:32.852Z,2.80
2022-11-29T04:47:09.928Z,3.40
2022-11-29T04:47:54.305Z,2.50
2022-11-29T04:48:31.920Z,3.28
2022-11-29T04:49:06.016Z,3.22
2022-11-29T04:49:43.630Z,3.15
2022-11-29T04:50:28.757Z,3.75
2022-11-29T04:51:06.194Z,2.85
2022-11-29T04:51:43.740Z,2.47
2022-11-29T04:52:28.865Z,3.53
2022-11-29T04:53:10.276Z,3.10
2022-11-29T04:53:49.538Z,2.75
2022-11-29T04:54:21.184Z,2.55
2022-11-29T04:54:51.214Z,2.75
2022-11-29T04:55:29.433Z,3.05
2022-11-29T04:56:06.857Z,2.38
2022-11-29T04:56:36.329Z,2.45
2022-11-29T04:57:07.351Z,2.92
2022-11-29T04:57:35.610Z,2.30
2022-11-29T04:58:05.288Z,2.42
2022-11-29T04:58:33.942Z,2.50
2022-11-29T04:59:02.297Z,2.67
2022-11-29T04:59:29.009Z,3.33
2022-11-29T04:59:58.347Z,2.58
2022-11-29T05:00:22.801Z,2.58
2022-11-29T05:00:54.458Z,2.80
2022-11-29T05:01:27.321Z,2.97
2022-11-29T05:02:02.003Z,2.25
2022-11-29T05:02:33.213Z,3.08
2022-11-29T05:02:58.223Z,3.15
2022-11-29T05:03:27.840Z,2.17
2022-11-29T05:03:57.307Z,2.97
2022-11-29T05:04:23.527Z,2.55
2022-11-29T05:04:54.189Z,2.30
2022-11-29T05:05:29.868Z,2.08
2022-11-29T05:05:57.568Z,2.42
2022-11-29T05:06:26.181Z,2.70
2022-11-29T05:06:58.674Z,2.70
2022-11-29T05:07:27.743Z,4.05
2022-11-29T05:07:58.260Z,3.33
2022-11-29T05:08:29.319Z,2.65
2022-11-29T05:09:00.210Z,2.83
2022-11-29T05:09:32.544Z,2.83
2022-11-29T05:10:00.409Z,3.20
2022-11-29T05:10:29.616Z,3.03
2022-11-29T05:11:04.004Z,3.17
2022-11-29T05:11:36.048Z,3.05
2022-11-29T05:12:06.643Z,2.30
2022-11-29T05:12:36.072Z,2.40
2022-11-29T05:13:07.069Z,2.20
2022-11-29T05:13:37.507Z,2.35
2022-11-29T05:14:10.816Z,2.17
2022-11-29T05:14:45.841Z,2.78
2022-11-29T05:15:27.585Z,3.15
2022-11-29T05:16:12.384Z,2.80
2022-11-29T05:16:47.375Z,2.67
2022-11-29T05:17:25.889Z,2.90
2022-11-29T05:17:56.899Z,3.13
2022-11-29T05:18:28.026Z,2.63
2022-11-29T05:19:15.147Z,2.50
2022-11-29T05:20:19.111Z,2.42
2022-11-29T05:20:48.574Z,3.00
2022-11-29T05:21:20.119Z,2.90
2022-11-29T05:21:52.056Z,3.08
2022-11-29T05:22:25.017Z,2.63
2022-11-29T05:22:58.426Z,2.42
2022-11-29T05:23:34.220Z,2.70
2022-11-29T05:24:11.811Z,2.53
2022-11-29T05:24:51.317Z,2.63
2022-11-29T05:25:31.298Z,2.78
2022-11-29T05:26:00.145Z,2.70
2022-11-29T05:26:27.318Z,2.45
2022-11-29T05:26:56.197Z,2.28
2022-11-29T05:27:28.165Z,3.25
2022-11-29T05:27:57.277Z,3.60
2022-11-29T05:28:24.489Z,3.03
2022-11-29T05:28:54.953Z,2.75
2022-11-29T05:29:24.080Z,2.85
2022-11-29T05:29:55.221Z,2.15
2022-11-29T05:30:20.469Z,2.55
2022-11-29T05:31:24.662Z,2.33
2022-11-29T05:31:59.465Z,2.47
2022-11-29T05:32:28.633Z,2.10
2022-11-29T05:32:58.111Z,2.13
2022-11-29T05:33:36.686Z,2.80
2022-11-29T05:34:21.842Z,2.47
2022-11-29T05:35:00.666Z,2.40
2022-11-29T05:36:04.678Z,2.70
2022-11-29T05:36:38.134Z,2.78
2022-11-29T05:37:13.179Z,3.00
2022-11-29T05:37:44.405Z,2.42
2022-11-29T05:38:21.387Z,2.47
2022-11-29T05:39:00.792Z,1.98
2022-11-29T05:39:37.270Z,2.33
2022-11-29T05:40:23.225Z,2.60
2022-11-29T05:41:02.108Z,2.42
2022-11-29T05:41:48.418Z,1.65
2022-11-29T05:42:31.353Z,2.22
2022-11-29T05:43:13.922Z,2.78
2022-11-29T05:43:51.376Z,2.63
2022-11-29T05:44:17.519Z,2.30
2022-11-29T05:44:46.702Z,2.55
2022-11-29T05:45:17.892Z,2.00
2022-11-29T05:45:47.201Z,2.55
2022-11-29T05:46:18.555Z,2.75
2022-11-29T05:46:49.520Z,2.47
2022-11-29T05:47:18.747Z,2.40
2022-11-29T05:47:49.758Z,2.60
2022-11-29T05:48:19.564Z,2.10
2022-11-29T05:48:48.862Z,2.35
2022-11-29T05:49:23.353Z,2.40
2022-11-29T05:49:55.271Z,2.13
2022-11-29T05:50:23.304Z,2.03
2022-11-29T05:50:51.052Z,2.65
2022-11-29T05:51:22.774Z,2.28
2022-11-29T05:51:50.299Z,1.90
2022-11-29T05:52:24.391Z,2.13
2022-11-29T05:52:56.488Z,2.25
2022-11-29T05:53:25.593Z,2.50
2022-11-29T05:53:58.828Z,2.38
2022-11-29T05:54:29.037Z,2.50
2022-11-29T05:55:05.800Z,2.50
2022-11-29T05:55:41.558Z,2.75
2022-11-29T05:56:11.667Z,2.72
2022-11-29T05:56:45.777Z,2.20
2022-11-29T05:57:14.290Z,2.33
2022-11-29T05:57:47.851Z,3.00
2022-11-29T05:58:19.611Z,2.80
2022-11-29T05:58:49.376Z,2.10
2022-11-29T05:59:16.323Z,3.20
2022-11-29T05:59:39.131Z,3.13
2022-11-29T06:00:03.120Z,3.05
2022-11-29T06:00:42.120Z,2.28
2022-11-29T06:01:15.186Z,2.47
2022-11-29T06:01:46.937Z,2.65
2022-11-29T06:02:23.791Z,2.33
2022-11-29T06:02:55.420Z,2.15
2022-11-29T06:03:25.645Z,3.05
2022-11-29T06:03:57.598Z,2.63
2022-11-29T06:04:24.200Z,2.70
2022-11-29T06:05:03.574Z,2.97
2022-11-29T06:05:36.068Z,2.70
2022-11-29T06:06:00.956Z,2.83
2022-11-29T06:06:34.662Z,2.45
2022-11-29T06:07:03.643Z,2.15
2022-11-29T06:07:31.852Z,3.00
2022-11-29T06:08:03.473Z,2.53
2022-11-29T06:08:37.286Z,2.92
2022-11-29T06:09:07.917Z,3.25
2022-11-29T06:09:33.677Z,2.65
2022-11-29T06:10:02.355Z,2.97
2022-11-29T06:10:28.420Z,3.58
2022-11-29T06:10:57.669Z,3.28
2022-11-29T06:11:25.135Z,2.47
2022-11-29T06:11:50.390Z,2.45
2022-11-29T06:12:20.761Z,2.53
2022-11-29T06:12:46.318Z,2.78
2022-11-29T06:13:21.936Z,2.25
2022-11-29T06:13:55.314Z,2.97
2022-11-29T06:14:36.202Z,2.13
2022-11-29T06:15:21.048Z,3.47
2022-11-29T06:16:10.963Z,3.25
2022-11-29T06:17:18.261Z,2.40
2022-11-29T06:17:55.218Z,2.85
2022-11-29T06:18:31.805Z,2.92
2022-11-29T06:19:33.568Z,3.47
2022-11-29T06:20:23.365Z,3.40
2022-11-29T06:21:09.016Z,2.80
2022-11-29T06:21:40.120Z,3.28
2022-11-29T06:22:16.990Z,2.97
2022-11-29T06:23:09.311Z,3.20
2022-11-29T06:23:54.477Z,3.42
2022-11-29T06:24:50.687Z,3.17
2022-11-29T06:25:23.435Z,3.38
2022-11-29T06:26:03.545Z,4.22
2022-11-29T06:26:41.927Z,3.70
2022-11-29T06:27:29.306Z,3.75
2022-11-29T06:28:19.262Z,3.28
2022-11-29T06:28:57.419Z,3.83
2022-11-29T06:29:33.115Z,4.22
2022-11-29T06:30:02.145Z,3.88
2022-11-29T06:30:29.910Z,4.30
2022-11-29T06:31:01.998Z,3.70
2022-11-29T06:31:28.442Z,3.08
2022-11-29T06:31:56.252Z,3.95
2022-11-29T06:32:26.579Z,3.55
2022-11-29T06:32:54.372Z,3.72
2022-11-29T06:33:22.682Z,4.28
2022-11-29T06:33:54.605Z,3.47
2022-11-29T06:34:30.651Z,3.70
2022-11-29T06:35:00.240Z,4.35
2022-11-29T06:35:35.391Z,4.00
2022-11-29T06:36:11.502Z,3.72
2022-11-29T06:36:41.071Z,4.50
2022-11-29T06:37:08.570Z,3.47
2022-11-29T06:37:34.634Z,3.85
2022-11-29T06:38:00.110Z,2.88
2022-11-29T06:38:27.058Z,4.28
2022-11-29T06:38:49.059Z,4.28
2022-11-29T06:39:11.590Z,3.40
2022-11-29T06:39:33.772Z,3.20
2022-11-29T06:39:56.765Z,3.25
2022-11-29T06:40:18.547Z,4.45
2022-11-29T06:40:40.757Z,3.58
2022-11-29T06:41:03.040Z,4.20